createdAt,value
2023-05-11T00:00:12.652Z,93.28
2023-05-11T00:01:12.520Z,92.97
2023-05-11T00:02:12.562Z,92.87
2023-05-11T00:03:12.721Z,92.87
2023-05-11T00:04:12.489Z,93.07
2023-05-11T00:05:12.483Z,93.18
2023-05-11T00:06:12.442Z,93.18
2023-05-11T00:07:12.429Z,93.07
2023-05-11T00:08:14.315Z,93.18
2023-05-11T00:09:12.433Z,93.07
2023-05-11T00:10:12.423Z,93.07
2023-05-11T00:11:12.370Z,93.07
2023-05-11T00:12:12.374Z,93.28
2023-05-11T00:13:12.351Z,93.18
2023-05-11T00:14:12.366Z,93.18
2023-05-11T00:15:12.324Z,93.28
2023-05-11T00:16:12.353Z,93.18
2023-05-11T00:17:12.285Z,93.07
2023-05-11T00:18:12.285Z,93.07
2023-05-11T00:19:12.284Z,93.07
2023-05-11T00:20:12.268Z,92.97
2023-05-11T00:21:12.241Z,92.97
2023-05-11T00:22:12.240Z,92.97
2023-05-11T00:23:12.229Z,92.91
2023-05-11T00:24:12.224Z,92.81
2023-05-11T00:25:12.188Z,92.81
2023-05-11T00:26:12.183Z,92.81
2023-05-11T00:27:12.155Z,92.81
2023-05-11T00:28:12.170Z,92.81
2023-05-11T00:29:12.134Z,93.02
2023-05-11T00:30:12.145Z,93.02
2023-05-11T00:31:12.167Z,92.81
2023-05-11T00:32:12.093Z,92.91
2023-05-11T00:33:12.096Z,92.91
2023-05-11T00:34:12.073Z,92.81
2023-05-11T00:35:12.061Z,92.86
2023-05-11T00:36:12.059Z,92.96
2023-05-11T00:37:12.037Z,93.06
2023-05-11T00:38:12.030Z,93.06
2023-05-11T00:39:11.995Z,93.06
2023-05-11T00:40:11.983Z,92.96
2023-05-11T00:41:11.996Z,92.96
2023-05-11T00:42:11.981Z,93.06
2023-05-11T00:43:11.951Z,93.16
2023-05-11T00:44:11.934Z,93.16
2023-05-11T00:45:11.930Z,93.31
2023-05-11T00:46:11.906Z,93.47
2023-05-11T00:47:11.967Z,93.37
2023-05-11T00:48:11.892Z,93.31
2023-05-11T00:49:11.922Z,93.26
2023-05-11T00:50:11.885Z,93.26
2023-05-11T00:51:11.856Z,93.31
2023-05-11T00:52:11.863Z,93.21
2023-05-11T00:53:11.795Z,93.10
2023-05-11T00:54:11.795Z,93.10
2023-05-11T00:55:11.789Z,93.00
2023-05-11T00:56:11.797Z,93.21
2023-05-11T00:57:11.766Z,93.31
2023-05-11T00:58:11.774Z,93.31
2023-05-11T00:59:11.721Z,93.37
2023-05-11T01:00:11.714Z,93.37
2023-05-11T01:01:11.751Z,93.57
2023-05-11T01:02:11.739Z,93.77
2023-05-11T01:03:11.728Z,93.57
2023-05-11T01:04:11.672Z,93.21
2023-05-11T01:05:11.676Z,93.21
2023-05-11T01:06:11.658Z,93.41
2023-05-11T01:07:11.776Z,93.71
2023-05-11T01:08:11.638Z,94.02
2023-05-11T01:09:11.601Z,94.23
2023-05-11T01:10:11.649Z,94.02
2023-05-11T01:11:11.747Z,93.92
2023-05-11T01:12:11.563Z,93.92
2023-05-11T01:13:11.550Z,94.02
2023-05-11T01:14:11.558Z,94.12
2023-05-11T01:15:11.546Z,94.23
2023-05-11T01:16:11.615Z,94.33
2023-05-11T01:17:11.486Z,94.12
2023-05-11T01:18:11.511Z,94.12
2023-05-11T01:19:11.680Z,93.71
2023-05-11T01:20:11.493Z,93.62
2023-05-11T01:21:11.442Z,93.62
2023-05-11T01:22:11.448Z,93.71
2023-05-11T01:23:11.417Z,93.71
2023-05-11T01:24:11.451Z,93.62
2023-05-11T01:25:11.398Z,93.55
2023-05-11T01:26:11.471Z,93.45
2023-05-11T01:27:11.372Z,93.25
2023-05-11T01:28:11.369Z,93.35
2023-05-11T01:29:11.430Z,93.35
2023-05-11T01:30:11.310Z,93.05
2023-05-11T01:31:11.382Z,92.94
2023-05-11T01:32:11.330Z,92.94
2023-05-11T01:33:11.324Z,92.94
2023-05-11T01:34:11.297Z,92.94
2023-05-11T01:35:11.277Z,92.94
2023-05-11T01:36:11.233Z,92.94
2023-05-11T01:37:11.225Z,92.94
2023-05-11T01:38:11.230Z,93.15
2023-05-11T01:39:11.208Z,93.15
2023-05-11T01:40:11.182Z,93.25
2023-05-11T01:41:11.155Z,93.25
2023-05-11T01:42:11.177Z,93.55
2023-05-11T01:43:11.156Z,93.66
2023-05-11T01:44:11.139Z,93.35
2023-05-11T01:45:11.100Z,93.15
2023-05-11T01:46:11.123Z,93.19
2023-05-11T01:47:11.081Z,93.09
2023-05-11T01:48:11.077Z,93.19
2023-05-11T01:49:11.050Z,93.29
2023-05-11T01:50:11.044Z,93.19
2023-05-11T01:51:11.032Z,93.09
2023-05-11T01:52:11.113Z,93.19
2023-05-11T01:53:11.022Z,93.29
2023-05-11T01:54:10.984Z,93.50
2023-05-11T01:55:10.975Z,93.40
2023-05-11T01:56:10.968Z,93.29
2023-05-11T01:57:10.968Z,93.40
2023-05-11T01:58:10.950Z,93.50
2023-05-11T01:59:10.917Z,93.29
2023-05-11T02:00:10.911Z,93.03
2023-05-11T02:01:10.908Z,92.72
2023-05-11T02:02:10.945Z,92.83
2023-05-11T02:03:10.977Z,92.72
2023-05-11T02:04:10.860Z,92.72
2023-05-11T02:05:10.837Z,92.83
2023-05-11T02:06:10.853Z,92.93
2023-05-11T02:07:10.832Z,92.83
2023-05-11T02:08:10.815Z,92.83
2023-05-11T02:09:10.800Z,92.83
2023-05-11T02:10:10.797Z,92.83
2023-05-11T02:11:10.828Z,93.03
2023-05-11T02:12:10.765Z,93.13
2023-05-11T02:13:10.767Z,93.03
2023-05-11T02:14:10.731Z,93.03
2023-05-11T02:15:10.708Z,93.03
2023-05-11T02:16:10.737Z,93.03
2023-05-11T02:17:10.695Z,92.77
2023-05-11T02:18:10.694Z,92.56
2023-05-11T02:19:10.712Z,92.56
2023-05-11T02:20:10.694Z,92.56
2023-05-11T02:21:10.650Z,92.66
2023-05-11T02:22:10.633Z,92.77
2023-05-11T02:23:10.606Z,92.56
2023-05-11T02:24:10.591Z,92.66
2023-05-11T02:25:10.608Z,92.56
2023-05-11T02:26:10.579Z,92.46
2023-05-11T02:27:10.549Z,92.36
2023-05-11T02:28:10.542Z,92.46
2023-05-11T02:29:10.542Z,92.66
2023-05-11T02:30:10.546Z,93.12
2023-05-11T02:31:10.529Z,93.38
2023-05-11T02:32:10.501Z,93.59
2023-05-11T02:33:10.493Z,93.38
2023-05-11T02:34:10.482Z,92.81
2023-05-11T02:35:10.458Z,92.40
2023-05-11T02:36:10.439Z,92.19
2023-05-11T02:37:10.418Z,92.10
2023-05-11T02:38:10.417Z,92.10
2023-05-11T02:39:10.405Z,92.30
2023-05-11T02:40:10.415Z,92.71
2023-05-11T02:41:10.388Z,92.91
2023-05-11T02:42:10.360Z,93.01
2023-05-11T02:43:10.344Z,93.12
2023-05-11T02:44:10.350Z,92.91
2023-05-11T02:45:10.330Z,92.85
2023-05-11T02:46:10.325Z,92.85
2023-05-11T02:47:10.287Z,92.96
2023-05-11T02:48:10.381Z,93.06
2023-05-11T02:49:10.274Z,93.26
2023-05-11T02:50:10.275Z,93.22
2023-05-11T02:51:10.228Z,93.22
2023-05-11T02:52:10.221Z,93.01
2023-05-11T02:53:10.228Z,92.81
2023-05-11T02:54:10.223Z,92.85
2023-05-11T02:55:10.175Z,92.85
2023-05-11T02:56:10.174Z,92.96
2023-05-11T02:57:10.149Z,93.06
2023-05-11T02:58:10.224Z,92.85
2023-05-11T02:59:10.124Z,92.65
2023-05-11T03:00:10.123Z,92.75
2023-05-11T03:01:10.147Z,92.96
2023-05-11T03:02:10.178Z,93.16
2023-05-11T03:03:10.177Z,93.37
2023-05-11T03:04:10.066Z,93.16
2023-05-11T03:05:10.053Z,92.85
2023-05-11T03:06:10.042Z,92.75
2023-05-11T03:07:10.047Z,92.96
2023-05-11T03:08:10.037Z,93.06
2023-05-11T03:09:10.496Z,93.06
2023-05-11T03:10:09.985Z,92.75
2023-05-11T03:11:09.974Z,92.75
2023-05-11T03:12:09.992Z,92.65
2023-05-11T03:13:09.937Z,92.55
2023-05-11T03:14:09.933Z,92.75
2023-05-11T03:15:09.925Z,92.96
2023-05-11T03:16:09.949Z,93.26
2023-05-11T03:17:09.906Z,93.26
2023-05-11T03:18:09.953Z,93.06
2023-05-11T03:19:09.861Z,92.75
2023-05-11T03:20:09.849Z,92.55
2023-05-11T03:21:09.868Z,92.44
2023-05-11T03:22:09.852Z,92.59
2023-05-11T03:23:09.810Z,92.69
2023-05-11T03:24:09.816Z,92.85
2023-05-11T03:25:09.789Z,92.96
2023-05-11T03:26:09.801Z,93.06
2023-05-11T03:27:09.769Z,93.26
2023-05-11T03:28:09.788Z,93.26
2023-05-11T03:29:09.734Z,93.16
2023-05-11T03:30:09.727Z,93.06
2023-05-11T03:31:09.748Z,93.06
2023-05-11T03:32:09.754Z,93.16
2023-05-11T03:33:09.751Z,93.26
2023-05-11T03:34:09.679Z,93.37
2023-05-11T03:35:09.660Z,93.26
2023-05-11T03:36:09.691Z,93.16
2023-05-11T03:37:09.627Z,93.16
2023-05-11T03:38:09.623Z,92.96
2023-05-11T03:39:09.608Z,92.85
2023-05-11T03:40:09.651Z,92.96
2023-05-11T03:41:09.598Z,92.96
2023-05-11T03:42:09.575Z,92.96
2023-05-11T03:43:09.560Z,92.85
2023-05-11T03:44:09.570Z,92.90
2023-05-11T03:45:09.545Z,92.79
2023-05-11T03:46:09.571Z,93.00
2023-05-11T03:47:09.512Z,93.10
2023-05-11T03:48:09.498Z,93.30
2023-05-11T03:49:11.510Z,93.30
2023-05-11T03:50:09.496Z,93.30
2023-05-11T03:51:09.481Z,93.10
2023-05-11T03:52:09.437Z,92.90
2023-05-11T03:53:09.426Z,92.79
2023-05-11T03:54:09.414Z,92.79
2023-05-11T03:55:09.408Z,92.90
2023-05-11T03:56:09.378Z,92.90
2023-05-11T03:57:09.363Z,92.90
2023-05-11T03:58:09.358Z,93.00
2023-05-11T03:59:09.395Z,93.10
2023-05-11T04:00:09.352Z,93.04
2023-05-11T04:01:09.310Z,93.04
2023-05-11T04:02:09.361Z,93.20
2023-05-11T04:03:09.454Z,93.41
2023-05-11T04:04:09.368Z,93.51
2023-05-11T04:05:09.267Z,93.51
2023-05-11T04:06:09.250Z,93.51
2023-05-11T04:07:09.230Z,93.62
2023-05-11T04:08:09.223Z,93.71
2023-05-11T04:09:09.238Z,93.71
2023-05-11T04:10:09.204Z,93.62
2023-05-11T04:11:09.177Z,93.62
2023-05-11T04:12:09.176Z,93.62
2023-05-11T04:13:09.169Z,93.51
2023-05-11T04:14:09.162Z,93.51
2023-05-11T04:15:09.138Z,93.62
2023-05-11T04:16:09.168Z,93.62
2023-05-11T04:17:09.098Z,93.71
2023-05-11T04:18:09.156Z,93.71
2023-05-11T04:19:09.156Z,93.71
2023-05-11T04:20:09.060Z,93.71
2023-05-11T04:21:09.058Z,93.71
2023-05-11T04:22:09.040Z,93.82
2023-05-11T04:23:10.392Z,93.82
2023-05-11T04:24:09.015Z,93.82
2023-05-11T04:25:09.011Z,93.82
2023-05-11T04:26:08.993Z,93.82
2023-05-11T04:27:08.973Z,93.62
2023-05-11T04:28:08.972Z,93.51
2023-05-11T04:29:08.947Z,93.41
2023-05-11T04:30:08.947Z,93.51
2023-05-11T04:31:08.944Z,93.71
2023-05-11T04:32:08.930Z,93.82
2023-05-11T04:33:08.931Z,93.82
2023-05-11T04:34:08.912Z,93.82
2023-05-11T04:35:08.875Z,93.62
2023-05-11T04:36:08.853Z,93.51
2023-05-11T04:37:08.849Z,93.62
2023-05-11T04:38:08.849Z,93.51
2023-05-11T04:39:08.838Z,93.41
2023-05-11T04:40:08.807Z,93.41
2023-05-11T04:41:08.801Z,93.51
2023-05-11T04:42:08.797Z,93.62
2023-05-11T04:43:08.765Z,93.51
2023-05-11T04:44:08.782Z,93.71
2023-05-11T04:45:08.723Z,93.71
2023-05-11T04:46:08.708Z,93.41
2023-05-11T04:47:08.804Z,93.51
2023-05-11T04:48:08.784Z,93.62
2023-05-11T04:49:08.675Z,93.82
2023-05-11T04:50:08.685Z,93.92
2023-05-11T04:51:08.644Z,94.12
2023-05-11T04:52:08.668Z,94.12
2023-05-11T04:53:08.613Z,94.23
2023-05-11T04:54:08.647Z,94.18
2023-05-11T04:55:08.619Z,94.18
2023-05-11T04:56:08.688Z,94.18
2023-05-11T04:57:09.120Z,94.18
2023-05-11T04:58:08.633Z,94.18
2023-05-11T04:59:08.558Z,94.29
2023-05-11T05:00:08.719Z,94.08
2023-05-11T05:01:08.578Z,94.08
2023-05-11T05:02:08.515Z,94.08
2023-05-11T05:03:08.577Z,94.08
2023-05-11T05:04:08.560Z,94.08
2023-05-11T05:05:08.474Z,94.29
2023-05-11T05:06:08.501Z,94.18
2023-05-11T05:07:08.494Z,94.14
2023-05-11T05:08:08.436Z,94.14
2023-05-11T05:09:08.421Z,94.14
2023-05-11T05:10:08.447Z,94.14
2023-05-11T05:11:08.411Z,94.24
2023-05-11T05:12:08.384Z,95.06
2023-05-11T05:13:08.378Z,94.71
2023-05-11T05:14:08.367Z,94.30
2023-05-11T05:15:08.365Z,93.99
2023-05-11T05:16:08.335Z,94.40
2023-05-11T05:17:08.349Z,93.65
2023-05-11T05:18:08.353Z,93.13
2023-05-11T05:19:08.386Z,93.33
2023-05-11T05:20:08.293Z,93.65
2023-05-11T05:21:08.267Z,93.70
2023-05-11T05:22:08.255Z,92.99
2023-05-11T05:23:08.239Z,92.58
2023-05-11T05:24:08.232Z,92.27
2023-05-11T05:25:08.236Z,92.27
2023-05-11T05:26:08.218Z,92.27
2023-05-11T05:27:08.180Z,92.27
2023-05-11T05:28:08.168Z,92.17
2023-05-11T05:29:08.169Z,92.07
2023-05-11T05:30:08.135Z,91.82
2023-05-11T05:31:08.363Z,91.82
2023-05-11T05:32:08.105Z,92.74
2023-05-11T05:33:08.176Z,92.13
2023-05-11T05:34:08.097Z,91.82
2023-05-11T05:35:08.079Z,91.61
2023-05-11T05:36:08.102Z,91.61
2023-05-11T05:37:08.045Z,91.72
2023-05-11T05:38:08.054Z,91.72
2023-05-11T05:39:08.029Z,91.92
2023-05-11T05:40:08.022Z,91.82
2023-05-11T05:41:07.987Z,91.92
2023-05-11T05:42:07.986Z,91.92
2023-05-11T05:43:07.975Z,92.27
2023-05-11T05:44:07.949Z,92.47
2023-05-11T05:45:07.940Z,92.47
2023-05-11T05:46:08.064Z,92.68
2023-05-11T05:47:07.915Z,92.88
2023-05-11T05:48:07.961Z,92.74
2023-05-11T05:49:07.924Z,92.84
2023-05-11T05:50:07.891Z,92.84
2023-05-11T05:51:07.862Z,92.64
2023-05-11T05:52:07.879Z,92.64
2023-05-11T05:53:07.856Z,92.64
2023-05-11T05:54:07.846Z,92.80
2023-05-11T05:55:07.819Z,92.29
2023-05-11T05:56:07.804Z,91.72
2023-05-11T05:57:07.808Z,91.78
2023-05-11T05:58:07.786Z,92.19
2023-05-11T05:59:07.826Z,92.59
2023-05-11T06:00:07.835Z,92.59
2023-05-11T06:01:07.735Z,92.39
2023-05-11T06:02:07.724Z,91.88
2023-05-11T06:03:07.974Z,91.53
2023-05-11T06:04:08.023Z,91.43
2023-05-11T06:05:07.758Z,91.43
2023-05-11T06:06:07.669Z,91.53
2023-05-11T06:07:07.657Z,91.43
2023-05-11T06:08:11.149Z,91.12
2023-05-11T06:09:07.633Z,91.02
2023-05-11T06:10:07.653Z,90.81
2023-05-11T06:11:07.654Z,90.81
2023-05-11T06:12:07.595Z,91.12
2023-05-11T06:13:07.593Z,90.71
2023-05-11T06:14:07.576Z,89.90
2023-05-11T06:15:07.553Z,90.10
2023-05-11T06:16:07.567Z,90.61
2023-05-11T06:17:07.526Z,90.41
2023-05-11T06:18:07.591Z,90.61
2023-05-11T06:19:07.556Z,91.22
2023-05-11T06:20:07.493Z,91.74
2023-05-11T06:21:07.489Z,92.10
2023-05-11T06:22:07.466Z,91.89
2023-05-11T06:23:07.477Z,91.18
2023-05-11T06:24:07.427Z,90.88
2023-05-11T06:25:07.419Z,90.98
2023-05-11T06:26:07.404Z,90.36
2023-05-11T06:27:07.440Z,90.36
2023-05-11T06:28:07.389Z,90.36
2023-05-11T06:29:07.362Z,90.16
2023-05-11T06:30:07.347Z,89.86
2023-05-11T06:31:07.338Z,89.45
2023-05-11T06:32:07.438Z,89.65
2023-05-11T06:33:07.388Z,89.96
2023-05-11T06:34:07.294Z,90.47
2023-05-11T06:35:07.319Z,90.36
2023-05-11T06:36:07.270Z,90.26
2023-05-11T06:37:07.278Z,90.16
2023-05-11T06:38:07.245Z,90.16
2023-05-11T06:39:07.250Z,90.06
2023-05-11T06:40:07.213Z,89.55
2023-05-11T06:41:07.206Z,89.25
2023-05-11T06:42:07.209Z,89.25
2023-05-11T06:43:07.178Z,89.55
2023-05-11T06:44:07.176Z,89.75
2023-05-11T06:45:07.191Z,89.71
2023-05-11T06:46:07.183Z,89.40
2023-05-11T06:47:07.150Z,89.10
2023-05-11T06:48:07.159Z,89.00
2023-05-11T06:49:07.099Z,89.10
2023-05-11T06:50:07.080Z,89.10
2023-05-11T06:51:07.091Z,88.79
2023-05-11T06:52:07.102Z,88.79
2023-05-11T06:53:07.048Z,89.10
2023-05-11T06:54:07.031Z,89.20
2023-05-11T06:55:07.033Z,88.59
2023-05-11T06:56:07.027Z,88.49
2023-05-11T06:57:07.008Z,89.20
2023-05-11T06:58:06.994Z,89.10
2023-05-11T06:59:06.973Z,89.10
2023-05-11T07:00:06.964Z,88.49
2023-05-11T07:01:06.966Z,88.18
2023-05-11T07:02:06.925Z,87.67
2023-05-11T07:03:06.961Z,87.06
2023-05-11T07:04:06.950Z,87.06
2023-05-11T07:05:06.949Z,87.26
2023-05-11T07:06:06.879Z,87.88
2023-05-11T07:07:06.860Z,88.49
2023-05-11T07:08:06.846Z,88.49
2023-05-11T07:09:06.836Z,87.47
2023-05-11T07:10:06.813Z,87.57
2023-05-11T07:11:06.818Z,87.47
2023-05-11T07:12:06.794Z,87.47
2023-05-11T07:13:06.779Z,87.47
2023-05-11T07:14:06.760Z,87.57
2023-05-11T07:15:06.770Z,87.98
2023-05-11T07:16:06.756Z,88.28
2023-05-11T07:17:06.751Z,88.28
2023-05-11T07:18:06.731Z,88.18
2023-05-11T07:19:06.837Z,88.49
2023-05-11T07:20:06.697Z,87.98
2023-05-11T07:21:06.682Z,87.84
2023-05-11T07:22:06.649Z,87.94
2023-05-11T07:23:06.640Z,88.45
2023-05-11T07:24:06.623Z,88.65
2023-05-11T07:25:06.637Z,88.75
2023-05-11T07:26:06.608Z,88.65
2023-05-11T07:27:06.591Z,88.51
2023-05-11T07:28:06.581Z,88.40
2023-05-11T07:29:06.574Z,88.20
2023-05-11T07:30:06.581Z,88.00
2023-05-11T07:31:06.569Z,87.69
2023-05-11T07:32:06.524Z,86.88
2023-05-11T07:33:06.689Z,86.88
2023-05-11T07:34:06.487Z,86.68
2023-05-11T07:35:06.500Z,86.47
2023-05-11T07:36:06.477Z,86.57
2023-05-11T07:37:06.460Z,86.37
2023-05-11T07:38:06.442Z,86.16
2023-05-11T07:39:06.454Z,86.06
2023-05-11T07:40:06.432Z,86.37
2023-05-11T07:41:07.427Z,86.47
2023-05-11T07:42:06.381Z,86.06
2023-05-11T07:43:06.377Z,85.75
2023-05-11T07:44:06.377Z,85.55
2023-05-11T07:45:06.368Z,85.66
2023-05-11T07:46:06.456Z,86.57
2023-05-11T07:47:06.328Z,86.57
2023-05-11T07:48:06.323Z,86.16
2023-05-11T07:49:15.804Z,85.96
2023-05-11T07:50:07.278Z,86.06
2023-05-11T07:51:06.282Z,86.16
2023-05-11T07:52:06.287Z,86.06
2023-05-11T07:53:06.248Z,85.96
2023-05-11T07:54:06.250Z,85.86
2023-05-11T07:55:06.211Z,86.27
2023-05-11T07:56:06.212Z,85.86
2023-05-11T07:57:06.203Z,85.96
2023-05-11T07:58:06.190Z,86.06
2023-05-11T07:59:06.184Z,86.47
2023-05-11T08:00:06.270Z,85.75
2023-05-11T08:01:06.141Z,85.96
2023-05-11T08:02:06.205Z,86.06
2023-05-11T08:03:06.155Z,86.13
2023-05-11T08:04:06.086Z,86.06
2023-05-11T08:05:06.083Z,86.16
2023-05-11T08:06:06.105Z,85.96
2023-05-11T08:07:06.063Z,86.16
2023-05-11T08:08:06.064Z,85.75
2023-05-11T08:09:06.046Z,85.55
2023-05-11T08:10:06.019Z,85.35
2023-05-11T08:11:06.034Z,85.66
2023-05-11T08:12:06.016Z,86.16
2023-05-11T08:13:05.991Z,86.27
2023-05-11T08:14:05.967Z,86.16
2023-05-11T08:15:05.949Z,86.06
2023-05-11T08:16:05.979Z,86.47
2023-05-11T08:17:05.965Z,86.57
2023-05-11T08:18:05.932Z,86.94
2023-05-11T08:19:06.090Z,85.51
2023-05-11T08:20:05.881Z,84.64
2023-05-11T08:21:05.874Z,85.14
2023-05-11T08:22:05.885Z,84.84
2023-05-11T08:23:05.847Z,85.14
2023-05-11T08:24:05.814Z,85.14
2023-05-11T08:25:05.803Z,85.14
2023-05-11T08:26:05.775Z,85.05
2023-05-11T08:27:05.815Z,85.14
2023-05-11T08:28:05.760Z,85.35
2023-05-11T08:29:05.743Z,85.66
2023-05-11T08:30:05.735Z,86.16
2023-05-11T08:31:05.746Z,85.45
2023-05-11T08:32:05.795Z,85.14
2023-05-11T08:33:17.633Z,85.55
2023-05-11T08:34:17.834Z,85.25
2023-05-11T08:35:06.767Z,85.35
2023-05-11T08:36:05.713Z,85.45
2023-05-11T08:37:05.680Z,85.45
2023-05-11T08:38:05.646Z,86.16
2023-05-11T08:39:05.631Z,86.16
2023-05-11T08:40:05.613Z,85.45
2023-05-11T08:41:05.615Z,85.45
2023-05-11T08:42:05.581Z,84.94
2023-05-11T08:43:05.578Z,84.43
2023-05-11T08:44:05.566Z,84.94
2023-05-11T08:45:05.560Z,85.25
2023-05-11T08:46:05.649Z,84.53
2023-05-11T08:47:21.038Z,84.84
2023-05-11T08:48:06.565Z,85.35
2023-05-11T08:49:05.514Z,85.82
2023-05-11T08:50:05.475Z,85.55
2023-05-11T08:51:05.497Z,84.94
2023-05-11T08:52:07.709Z,85.21
2023-05-11T08:53:05.444Z,85.82
2023-05-11T08:54:05.434Z,85.11
2023-05-11T08:55:05.416Z,85.31
2023-05-11T08:56:05.424Z,85.11
2023-05-11T08:57:05.388Z,85.41
2023-05-11T08:58:05.384Z,86.13
2023-05-11T08:59:05.367Z,85.92
2023-05-11T09:00:05.358Z,86.13
2023-05-11T09:01:05.397Z,86.83
2023-05-11T09:02:05.332Z,85.92
2023-05-11T09:03:05.388Z,85.41
2023-05-11T09:04:05.338Z,85.31
2023-05-11T09:05:05.360Z,85.27
2023-05-11T09:06:05.297Z,85.47
2023-05-11T09:07:05.265Z,85.17
2023-05-11T09:08:05.248Z,85.17
2023-05-11T09:09:05.239Z,85.06
2023-05-11T09:10:05.300Z,85.37
2023-05-11T09:11:05.220Z,85.88
2023-05-11T09:12:05.196Z,85.98
2023-05-11T09:13:05.173Z,85.88
2023-05-11T09:14:05.162Z,85.27
2023-05-11T09:15:05.158Z,84.66
2023-05-11T09:16:09.263Z,84.66
2023-05-11T09:17:06.210Z,84.15
2023-05-11T09:18:05.193Z,83.23
2023-05-11T09:19:05.201Z,82.93
2023-05-11T09:20:05.127Z,84.15
2023-05-11T09:21:05.074Z,84.25
2023-05-11T09:22:05.049Z,84.15
2023-05-11T09:23:05.058Z,83.84
2023-05-11T09:24:05.043Z,83.84
2023-05-11T09:25:05.037Z,83.74
2023-05-11T09:26:05.004Z,83.13
2023-05-11T09:27:05.005Z,83.84
2023-05-11T09:28:04.965Z,83.95
2023-05-11T09:29:05.433Z,83.54
2023-05-11T09:30:05.031Z,83.84
2023-05-11T09:31:04.968Z,84.56
2023-05-11T09:32:04.943Z,84.45
2023-05-11T09:33:04.966Z,84.45
2023-05-11T09:34:04.913Z,84.15
2023-05-11T09:35:04.889Z,84.45
2023-05-11T09:36:04.876Z,84.45
2023-05-11T09:37:04.878Z,83.89
2023-05-11T09:38:05.162Z,83.98
2023-05-11T09:39:04.869Z,84.35
2023-05-11T09:41:04.859Z,84.66
2023-05-11T09:42:04.789Z,84.25
2023-05-11T09:43:04.831Z,83.64
2023-05-11T09:44:04.793Z,83.13
2023-05-11T09:45:04.795Z,83.23
2023-05-11T09:46:04.842Z,83.74
2023-05-11T09:47:04.728Z,84.31
2023-05-11T09:48:04.861Z,82.99
2023-05-11T09:49:04.697Z,82.99
2023-05-11T09:50:04.700Z,82.59
2023-05-11T09:51:04.680Z,82.28
2023-05-11T09:52:04.684Z,82.68
2023-05-11T09:53:04.677Z,83.09
2023-05-11T09:54:04.621Z,82.99
2023-05-11T09:55:04.614Z,82.99
2023-05-11T09:56:04.643Z,82.99
2023-05-11T09:57:04.613Z,82.28
2023-05-11T09:58:04.597Z,82.38
2023-05-11T09:59:04.568Z,82.65
2023-05-11T10:00:04.573Z,82.45
2023-05-11T10:01:04.596Z,82.24
2023-05-11T10:02:04.560Z,82.24
2023-05-11T10:03:04.646Z,82.34
2023-05-11T10:04:13.837Z,82.51
2023-05-11T10:05:05.505Z,83.32
2023-05-11T10:06:04.481Z,83.22
2023-05-11T10:07:04.493Z,79.86
2023-05-11T10:08:04.448Z,80.17
2023-05-11T10:09:04.444Z,79.83
2023-05-11T10:10:04.432Z,80.13
2023-05-11T10:11:04.402Z,79.63
2023-05-11T10:12:04.404Z,78.71
2023-05-11T10:13:04.392Z,79.63
2023-05-11T10:14:04.364Z,80.40
2023-05-11T10:15:04.354Z,81.01
2023-05-11T10:16:04.404Z,81.41
2023-05-11T10:17:04.354Z,80.40
2023-05-11T10:18:04.352Z,78.44
2023-05-11T10:19:04.340Z,79.35
2023-05-11T10:20:04.301Z,79.25
2023-05-11T10:21:04.324Z,78.03
2023-05-11T10:22:04.307Z,77.52
2023-05-11T10:23:04.247Z,77.86
2023-05-11T10:24:04.249Z,78.17
2023-05-11T10:25:04.223Z,77.76
2023-05-11T10:26:04.229Z,77.72
2023-05-11T10:27:04.245Z,77.93
2023-05-11T10:28:04.189Z,78.94
2023-05-11T10:29:04.164Z,79.45
2023-05-11T10:30:04.198Z,78.94
2023-05-11T10:31:04.149Z,78.03
2023-05-11T10:32:04.211Z,79.85
2023-05-11T10:33:04.171Z,77.22
2023-05-11T10:34:04.109Z,78.33
2023-05-11T10:35:04.085Z,79.25
2023-05-11T10:36:04.093Z,78.03
2023-05-11T10:37:04.073Z,77.52
2023-05-11T10:38:04.049Z,79.14
2023-05-11T10:39:04.047Z,79.51
2023-05-11T10:40:04.043Z,79.41
2023-05-11T10:41:04.019Z,78.70
2023-05-11T10:42:04.022Z,77.99
2023-05-11T10:43:03.980Z,77.28
2023-05-11T10:44:03.963Z,77.28
2023-05-11T10:45:03.980Z,78.19
2023-05-11T10:46:03.983Z,77.59
2023-05-11T10:47:03.933Z,77.69
2023-05-11T10:48:03.964Z,77.48
2023-05-11T10:49:03.902Z,76.78
2023-05-11T10:50:03.910Z,77.18
2023-05-11T10:51:03.872Z,76.17
2023-05-11T10:52:03.856Z,76.98
2023-05-11T10:53:03.846Z,76.37
2023-05-11T10:54:03.868Z,76.87
2023-05-11T10:55:03.827Z,76.74
2023-05-11T10:56:03.823Z,75.73
2023-05-11T10:57:03.818Z,75.82
2023-05-11T10:58:03.795Z,75.93
2023-05-11T10:59:03.789Z,75.93
2023-05-11T11:00:03.756Z,76.23
2023-05-11T11:01:03.831Z,74.41
2023-05-11T11:02:03.745Z,75.01
2023-05-11T11:03:03.776Z,76.43
2023-05-11T11:04:03.711Z,77.04
2023-05-11T11:05:03.734Z,75.93
2023-05-11T11:06:03.732Z,76.74
2023-05-11T11:07:03.664Z,75.62
2023-05-11T11:08:03.652Z,75.62
2023-05-11T11:09:03.662Z,77.95
2023-05-11T11:10:03.622Z,78.26
2023-05-11T11:11:05.023Z,78.26
2023-05-11T11:12:03.597Z,78.12
2023-05-11T11:13:03.598Z,75.82
2023-05-11T11:14:03.765Z,75.52
2023-05-11T11:15:03.557Z,76.54
2023-05-11T11:16:03.568Z,75.42
2023-05-11T11:17:03.566Z,75.82
2023-05-11T11:18:03.619Z,76.74
2023-05-11T11:19:03.537Z,75.62
2023-05-11T11:20:03.494Z,75.93
2023-05-11T11:21:03.472Z,75.73
2023-05-11T11:22:03.479Z,76.67
2023-05-11T11:23:03.458Z,77.65
2023-05-11T11:24:03.448Z,78.16
2023-05-11T11:25:03.422Z,77.55
2023-05-11T11:26:03.417Z,77.45
2023-05-11T11:27:03.402Z,75.42
2023-05-11T11:28:03.406Z,75.52
2023-05-11T11:29:03.375Z,76.80
2023-05-11T11:30:03.369Z,76.50
2023-05-11T11:31:03.367Z,74.77
2023-05-11T11:32:03.351Z,75.69
2023-05-11T11:33:03.411Z,76.90
2023-05-11T11:34:03.312Z,76.09
2023-05-11T11:35:03.294Z,76.09
2023-05-11T11:36:03.278Z,76.90
2023-05-11T11:37:03.300Z,75.55
2023-05-11T11:38:03.259Z,76.16
2023-05-11T11:39:03.239Z,76.06
2023-05-11T11:40:13.669Z,77.78
2023-05-11T11:41:04.213Z,76.46
2023-05-11T11:42:03.227Z,76.06
2023-05-11T11:43:03.191Z,75.96
2023-05-11T11:44:03.208Z,75.55
2023-05-11T11:45:03.171Z,75.35
2023-05-11T11:46:03.262Z,75.35
2023-05-11T11:47:03.160Z,74.95
2023-05-11T11:48:03.184Z,74.95
2023-05-11T11:49:03.099Z,76.16
2023-05-11T11:50:03.104Z,77.48
2023-05-11T11:51:03.118Z,76.26
2023-05-11T11:52:03.078Z,74.13
2023-05-11T11:53:03.063Z,73.83
2023-05-11T11:54:03.055Z,75.45
2023-05-11T11:55:03.021Z,75.85
2023-05-11T11:56:03.047Z,75.85
2023-05-11T11:57:03.009Z,75.15
2023-05-11T11:58:02.990Z,76.97
2023-05-11T11:59:02.968Z,76.67
2023-05-11T12:00:02.957Z,77.28
2023-05-11T12:01:02.982Z,76.83
2023-05-11T12:02:02.929Z,78.15
2023-05-11T12:03:03.012Z,79.46
2023-05-11T12:04:03.107Z,77.75
2023-05-11T12:05:02.920Z,78.25
2023-05-11T12:06:02.891Z,76.83
2023-05-11T12:07:02.870Z,76.12
2023-05-11T12:08:02.850Z,75.11
2023-05-11T12:09:02.836Z,75.42
2023-05-11T12:10:02.945Z,74.20
2023-05-11T12:11:02.820Z,74.40
2023-05-11T12:12:02.830Z,74.60
2023-05-11T12:13:02.774Z,74.20
2023-05-11T12:14:02.816Z,73.59
2023-05-11T12:15:02.771Z,74.20
2023-05-11T12:16:02.795Z,73.80
2023-05-11T12:17:02.777Z,72.58
2023-05-11T12:18:02.951Z,72.99
2023-05-11T12:19:02.731Z,74.10
2023-05-11T12:20:02.725Z,74.91
2023-05-11T12:21:02.669Z,75.72
2023-05-11T12:22:02.675Z,75.92
2023-05-11T12:23:02.653Z,74.81
2023-05-11T12:24:02.649Z,74.20
2023-05-11T12:25:02.652Z,74.00
2023-05-11T12:26:02.606Z,74.30
2023-05-11T12:27:02.609Z,73.29
2023-05-11T12:28:02.602Z,73.59
2023-05-11T12:29:02.590Z,75.01
2023-05-11T12:30:02.635Z,75.31
2023-05-11T12:31:02.543Z,75.62
2023-05-11T12:32:02.557Z,75.21
2023-05-11T12:33:02.537Z,74.40
2023-05-11T12:34:02.529Z,72.08
2023-05-11T12:35:02.496Z,70.86
2023-05-11T12:36:02.496Z,71.88
2023-05-11T12:37:02.466Z,72.88
2023-05-11T12:38:02.465Z,73.80
2023-05-11T12:39:02.473Z,73.80
2023-05-11T12:40:02.438Z,73.69
2023-05-11T12:41:02.414Z,71.77
2023-05-11T12:42:02.418Z,71.26
2023-05-11T12:43:02.388Z,72.58
2023-05-11T12:44:02.395Z,71.67
2023-05-11T12:45:02.378Z,71.67
2023-05-11T12:46:02.393Z,72.17
2023-05-11T12:47:02.340Z,72.17
2023-05-11T12:48:02.371Z,73.09
2023-05-11T12:49:02.321Z,73.80
2023-05-11T12:50:02.302Z,74.10
2023-05-11T12:51:02.295Z,73.90
2023-05-11T12:52:02.333Z,72.17
2023-05-11T12:53:02.279Z,71.37